sensor_id;sensor_type;location;lat;lon;timestamp;pressure;altitude;pressure_sealevel;temperature;humidity
59194;BME280;44967;48.598;15.650;2024-03-17T00:00:02;98718.38;;;8.67;86.28
59194;BME280;44967;48.598;15.650;2024-03-17T00:02:29;98718.25;;;8.74;85.83
59194;BME280;44967;48.598;15.650;2024-03-17T00:04:55;98728.91;;;8.67;86.10
59194;BME280;44967;48.598;15.650;2024-03-17T00:07:20;98725.34;;;8.69;86.25
59194;BME280;44967;48.598;15.650;2024-03-17T00:09:46;98732.41;;;8.69;86.19
59194;BME280;44967;48.598;15.650;2024-03-17T00:12:12;98738.44;;;8.77;85.98
59194;BME280;44967;48.598;15.650;2024-03-17T00:14:38;98738.44;;;8.77;85.70
59194;BME280;44967;48.598;15.650;2024-03-17T00:17:04;98749.81;;;8.77;85.45
59194;BME280;44967;48.598;15.650;2024-03-17T00:19:30;98742.69;;;8.84;83.95
59194;BME280;44967;48.598;15.650;2024-03-17T00:21:55;98738.25;;;8.87;83.73
59194;BME280;44967;48.598;15.650;2024-03-17T00:24:21;98742.63;;;8.88;82.40
59194;BME280;44967;48.598;15.650;2024-03-17T00:26:48;98738.13;;;8.93;82.75
59194;BME280;44967;48.598;15.650;2024-03-17T00:29:14;98736.56;;;8.82;80.28
59194;BME280;44967;48.598;15.650;2024-03-17T00:31:41;98729.41;;;8.90;80.23
59194;BME280;44967;48.598;15.650;2024-03-17T00:34:06;98741.69;;;8.91;79.86
59194;BME280;44967;48.598;15.650;2024-03-17T00:36:32;98751.41;;;8.87;80.40
59194;BME280;44967;48.598;15.650;2024-03-17T00:38:58;98757.69;;;8.79;80.23
59194;BME280;44967;48.598;15.650;2024-03-17T00:41:24;98753.31;;;8.79;79.72
59194;BME280;44967;48.598;15.650;2024-03-17T00:43:50;98754.25;;;8.77;79.53
59194;BME280;44967;48.598;15.650;2024-03-17T00:46:22;98755.94;;;8.78;78.19
59194;BME280;44967;48.598;15.650;2024-03-17T00:48:48;98756.00;;;8.75;75.89
59194;BME280;44967;48.598;15.650;2024-03-17T00:51:15;98758.56;;;8.81;75.36
59194;BME280;44967;48.598;15.650;2024-03-17T00:53:42;98761.34;;;8.72;75.63
59194;BME280;44967;48.598;15.650;2024-03-17T00:56:08;98757.88;;;8.67;74.97
59194;BME280;44967;48.598;15.650;2024-03-17T00:58:34;98767.69;;;8.59;72.85
59194;BME280;44967;48.598;15.650;2024-03-17T01:01:00;98752.91;;;8.48;72.27
59194;BME280;44967;48.598;15.650;2024-03-17T01:03:26;98753.16;;;8.32;71.08
59194;BME280;44967;48.598;15.650;2024-03-17T01:05:53;98753.16;;;8.33;71.65
59194;BME280;44967;48.598;15.650;2024-03-17T01:08:19;98749.66;;;8.30;71.19
59194;BME280;44967;48.598;15.650;2024-03-17T01:10:46;98753.19;;;8.27;70.79
59194;BME280;44967;48.598;15.650;2024-03-17T01:13:16;98760.47;;;8.07;72.05
59194;BME280;44967;48.598;15.650;2024-03-17T01:15:42;98757.25;;;7.84;71.65
59194;BME280;44967;48.598;15.650;2024-03-17T01:18:08;98774.84;;;7.79;71.99
59194;BME280;44967;48.598;15.650;2024-03-17T01:20:36;98770.47;;;7.81;71.70
59194;BME280;44967;48.598;15.650;2024-03-17T01:23:04;98780.88;;;7.88;70.96
59194;BME280;44967;48.598;15.650;2024-03-17T01:25:30;98781.03;;;7.75;70.53
59194;BME280;44967;48.598;15.650;2024-03-17T01:27:56;98794.31;;;7.63;71.08
59194;BME280;44967;48.598;15.650;2024-03-17T01:30:23;98802.28;;;7.58;71.83
59194;BME280;44967;48.598;15.650;2024-03-17T01:32:48;98802.22;;;7.64;72.38
59194;BME280;44967;48.598;15.650;2024-03-17T01:35:14;98799.50;;;7.72;71.82
59194;BME280;44967;48.598;15.650;2024-03-17T01:37:41;98794.28;;;7.70;73.21
59194;BME280;44967;48.598;15.650;2024-03-17T01:40:08;98796.91;;;7.67;72.75
59194;BME280;44967;48.598;15.650;2024-03-17T01:42:40;98787.22;;;7.72;71.89
59194;BME280;44967;48.598;15.650;2024-03-17T01:45:27;98790.78;;;7.68;70.26
59194;BME280;44967;48.598;15.650;2024-03-17T01:47:54;98797.78;;;7.68;70.36
59194;BME280;44967;48.598;15.650;2024-03-17T01:50:25;98795.16;;;7.68;69.29
59194;BME280;44967;48.598;15.650;2024-03-17T01:52:56;98797.03;;;7.58;68.28
59194;BME280;44967;48.598;15.650;2024-03-17T01:55:22;98799.69;;;7.53;69.14
59194;BME280;44967;48.598;15.650;2024-03-17T01:57:51;98805.00;;;7.50;70.13
59194;BME280;44967;48.598;15.650;2024-03-17T02:00:17;98795.41;;;7.43;71.50
59194;BME280;44967;48.598;15.650;2024-03-17T02:02:43;98790.19;;;7.40;73.40
59194;BME280;44967;48.598;15.650;2024-03-17T02:05:09;98790.34;;;7.27;73.26
59194;BME280;44967;48.598;15.650;2024-03-17T02:07:36;98794.75;;;7.20;73.41
59194;BME280;44967;48.598;15.650;2024-03-17T02:10:02;98795.66;;;7.16;73.81
59194;BME280;44967;48.598;15.650;2024-03-17T02:12:31;98796.53;;;7.15;73.82
59194;BME280;44967;48.598;15.650;2024-03-17T02:14:58;98797.50;;;7.09;74.99
59194;BME280;44967;48.598;15.650;2024-03-17T02:17:25;98798.44;;;7.01;75.79
59194;BME280;44967;48.598;15.650;2024-03-17T02:19:51;98799.34;;;6.95;75.67
59194;BME280;44967;48.598;15.650;2024-03-17T02:22:20;98801.25;;;6.77;76.13
59194;BME280;44967;48.598;15.650;2024-03-17T02:24:46;98804.84;;;6.67;76.92
59194;BME280;44967;48.598;15.650;2024-03-17T02:27:12;98808.38;;;6.59;76.33
59194;BME280;44967;48.598;15.650;2024-03-17T02:29:39;98812.75;;;6.57;77.02
59194;BME280;44967;48.598;15.650;2024-03-17T02:32:08;98813.66;;;6.53;77.18
59194;BME280;44967;48.598;15.650;2024-03-17T02:34:37;98819.88;;;6.43;76.96
59194;BME280;44967;48.598;15.650;2024-03-17T02:37:04;98820.69;;;6.48;77.48
59194;BME280;44967;48.598;15.650;2024-03-17T02:39:33;98825.09;;;6.42;77.10
59194;BME280;44967;48.598;15.650;2024-03-17T02:42:07;98819.03;;;6.31;76.67
59194;BME280;44967;48.598;15.650;2024-03-17T02:44:35;98824.31;;;6.25;77.65
59194;BME280;44967;48.598;15.650;2024-03-17T02:47:02;98815.59;;;6.16;77.65
59194;BME280;44967;48.598;15.650;2024-03-17T02:49:34;98820.00;;;6.10;78.26
59194;BME280;44967;48.598;15.650;2024-03-17T02:52:08;98825.25;;;6.10;78.19
59194;BME280;44967;48.598;15.650;2024-03-17T02:54:38;98834.00;;;6.12;78.91
59194;BME280;44967;48.598;15.650;2024-03-17T02:57:05;98833.13;;;6.11;79.31
59194;BME280;44967;48.598;15.650;2024-03-17T02:59:33;98832.25;;;6.11;79.83
59194;BME280;44967;48.598;15.650;2024-03-17T03:01:59;98827.06;;;5.97;79.39
59194;BME280;44967;48.598;15.650;2024-03-17T03:04:25;98823.56;;;5.97;79.20
59194;BME280;44967;48.598;15.650;2024-03-17T03:06:52;98820.97;;;5.91;79.60
59194;BME280;44967;48.598;15.650;2024-03-17T03:09:18;98827.94;;;5.89;79.95
59194;BME280;44967;48.598;15.650;2024-03-17T03:11:52;98829.66;;;6.02;79.58
59194;BME280;44967;48.598;15.650;2024-03-17T03:14:19;98826.16;;;6.01;79.38
59194;BME280;44967;48.598;15.650;2024-03-17T03:16:45;98837.50;;;6.05;79.06
59194;BME280;44967;48.598;15.650;2024-03-17T03:19:11;98843.63;;;6.10;79.20
59194;BME280;44967;48.598;15.650;2024-03-17T03:21:36;98843.63;;;6.16;79.57
59194;BME280;44967;48.598;15.650;2024-03-17T03:24:02;98839.25;;;6.15;78.91
59194;BME280;44967;48.598;15.650;2024-03-17T03:26:28;98846.22;;;6.14;78.13
59194;BME280;44967;48.598;15.650;2024-03-17T03:28:54;98848.03;;;5.99;78.66
59194;BME280;44967;48.598;15.650;2024-03-17T03:31:21;98857.63;;;6.04;80.26
59194;BME280;44967;48.598;15.650;2024-03-17T03:33:47;98856.78;;;5.98;79.69
59194;BME280;44967;48.598;15.650;2024-03-17T03:36:14;98861.16;;;6.00;80.07
59194;BME280;44967;48.598;15.650;2024-03-17T03:38:42;98852.41;;;6.00;80.17
59194;BME280;44967;48.598;15.650;2024-03-17T03:41:15;98844.56;;;6.00;79.44
59194;BME280;44967;48.598;15.650;2024-03-17T03:43:42;98849.78;;;5.97;79.43
59194;BME280;44967;48.598;15.650;2024-03-17T03:46:09;98845.44;;;5.79;79.44
59194;BME280;44967;48.598;15.650;2024-03-17T03:48:35;98834.16;;;5.60;78.97
59194;BME280;44967;48.598;15.650;2024-03-17T03:51:04;98848.13;;;5.59;79.23
59194;BME280;44967;48.598;15.650;2024-03-17T03:53:32;98857.69;;;5.65;80.43
59194;BME280;44967;48.598;15.650;2024-03-17T03:55:58;98856.84;;;5.67;79.44
59194;BME280;44967;48.598;15.650;2024-03-17T03:58:28;98856.81;;;5.74;77.67
59194;BME280;44967;48.598;15.650;2024-03-17T04:00:55;98862.97;;;5.63;78.66
59194;BME280;44967;48.598;15.650;2024-03-17T04:03:21;98852.47;;;5.57;77.70
59194;BME280;44967;48.598;15.650;2024-03-17T04:05:48;98854.25;;;5.46;77.36
59194;BME280;44967;48.598;15.650;2024-03-17T04:08:13;98848.13;;;5.47;75.72
59194;BME280;44967;48.598;15.650;2024-03-17T04:10:39;98853.38;;;5.46;77.57
59194;BME280;44967;48.598;15.650;2024-03-17T04:13:05;98849.88;;;5.38;77.67
59194;BME280;44967;48.598;15.650;2024-03-17T04:15:31;98856.91;;;5.37;77.22
59194;BME280;44967;48.598;15.650;2024-03-17T04:17:56;98856.88;;;5.31;76.96
59194;BME280;44967;48.598;15.650;2024-03-17T04:20:23;98853.41;;;5.17;76.68
59194;BME280;44967;48.598;15.650;2024-03-17T04:22:49;98853.41;;;5.17;76.83
59194;BME280;44967;48.598;15.650;2024-03-17T04:25:15;98842.94;;;5.17;77.54
59194;BME280;44967;48.598;15.650;2024-03-17T04:27:41;98838.53;;;5.07;76.96
59194;BME280;44967;48.598;15.650;2024-03-17T04:30:08;98849.03;;;5.04;77.59
59194;BME280;44967;48.598;15.650;2024-03-17T04:32:34;98842.94;;;4.90;77.50
59194;BME280;44967;48.598;15.650;2024-03-17T04:35:00;98842.03;;;4.83;77.66
59194;BME280;44967;48.598;15.650;2024-03-17T04:37:26;98844.63;;;4.79;78.02
59194;BME280;44967;48.598;15.650;2024-03-17T04:39:53;98849.88;;;4.69;78.52
59194;BME280;44967;48.598;15.650;2024-03-17T04:42:23;98856.00;;;4.81;77.98
59194;BME280;44967;48.598;15.650;2024-03-17T04:44:48;98865.59;;;4.85;77.98
59194;BME280;44967;48.598;15.650;2024-03-17T04:47:14;98868.22;;;4.85;77.27
59194;BME280;44967;48.598;15.650;2024-03-17T04:49:42;98868.19;;;4.72;77.61
59194;BME280;44967;48.598;15.650;2024-03-17T04:52:09;98868.13;;;4.47;78.64
59194;BME280;44967;48.598;15.650;2024-03-17T04:54:35;98879.50;;;4.50;78.96
59194;BME280;44967;48.598;15.650;2024-03-17T04:57:01;98883.88;;;4.56;78.81
59194;BME280;44967;48.598;15.650;2024-03-17T04:59:28;98875.16;;;4.64;78.95
59194;BME280;44967;48.598;15.650;2024-03-17T05:01:54;98870.81;;;4.68;79.14
59194;BME280;44967;48.598;15.650;2024-03-17T05:04:20;98875.16;;;4.60;78.82
59194;BME280;44967;48.598;15.650;2024-03-17T05:06:46;98874.28;;;4.53;79.10
59194;BME280;44967;48.598;15.650;2024-03-17T05:09:16;98881.25;;;4.57;79.09
59194;BME280;44967;48.598;15.650;2024-03-17T05:11:42;98874.22;;;4.47;78.92
59194;BME280;44967;48.598;15.650;2024-03-17T05:14:09;98882.09;;;4.49;79.22
59194;BME280;44967;48.598;15.650;2024-03-17T05:16:35;98893.41;;;4.37;79.32
59194;BME280;44967;48.598;15.650;2024-03-17T05:19:01;98892.50;;;4.29;79.07
59194;BME280;44967;48.598;15.650;2024-03-17T05:21:27;98892.50;;;4.29;79.64
59194;BME280;44967;48.598;15.650;2024-03-17T05:23:56;98896.03;;;4.34;79.22
59194;BME280;44967;48.598;15.650;2024-03-17T05:26:23;98896.84;;;4.28;78.73
59194;BME280;44967;48.598;15.650;2024-03-17T05:28:50;98900.34;;;4.32;78.78
59194;BME280;44967;48.598;15.650;2024-03-17T05:31:16;98897.72;;;4.32;78.56
59194;BME280;44967;48.598;15.650;2024-03-17T05:33:46;98901.28;;;4.46;78.67
59194;BME280;44967;48.598;15.650;2024-03-17T05:36:12;98900.41;;;4.38;78.76
59194;BME280;44967;48.598;15.650;2024-03-17T05:38:38;98896.81;;;4.21;79.36
59194;BME280;44967;48.598;15.650;2024-03-17T05:41:05;98902.06;;;4.27;78.78
59194;BME280;44967;48.598;15.650;2024-03-17T05:43:33;98889.81;;;4.14;79.73
59194;BME280;44967;48.598;15.650;2024-03-17T05:46:02;98895.94;;;4.14;79.35
59194;BME280;44967;48.598;15.650;2024-03-17T05:48:33;98902.06;;;4.21;79.28
59194;BME280;44967;48.598;15.650;2024-03-17T05:51:01;98900.31;;;4.23;79.23
59194;BME280;44967;48.598;15.650;2024-03-17T05:53:31;98899.47;;;4.22;79.22
59194;BME280;44967;48.598;15.650;2024-03-17T05:56:00;98907.28;;;4.24;79.75
59194;BME280;44967;48.598;15.650;2024-03-17T05:58:26;98902.97;;;4.26;79.88
59194;BME280;44967;48.598;15.650;2024-03-17T06:00:52;98902.09;;;4.33;80.14
59194;BME280;44967;48.598;15.650;2024-03-17T06:03:17;98898.63;;;4.40;79.98
59194;BME280;44967;48.598;15.650;2024-03-17T06:05:44;98909.16;;;4.49;80.65
59194;BME280;44967;48.598;15.650;2024-03-17T06:08:13;98896.09;;;4.60;80.22
59194;BME280;44967;48.598;15.650;2024-03-17T06:10:44;98900.47;;;4.71;79.29
59194;BME280;44967;48.598;15.650;2024-03-17T06:13:10;98895.31;;;4.90;78.93
59194;BME280;44967;48.598;15.650;2024-03-17T06:15:39;98906.63;;;4.95;79.36
59194;BME280;44967;48.598;15.650;2024-03-17T06:18:06;98904.88;;;5.06;78.70
59194;BME280;44967;48.598;15.650;2024-03-17T06:20:34;98894.44;;;5.10;78.45
59194;BME280;44967;48.598;15.650;2024-03-17T06:23:00;98897.06;;;5.19;78.58
59194;BME280;44967;48.598;15.650;2024-03-17T06:25:26;98904.94;;;5.32;78.32
59194;BME280;44967;48.598;15.650;2024-03-17T06:27:53;98902.31;;;5.44;78.08
59194;BME280;44967;48.598;15.650;2024-03-17T06:30:20;98901.44;;;5.55;78.04
59194;BME280;44967;48.598;15.650;2024-03-17T06:32:47;98900.53;;;5.67;76.76
59194;BME280;44967;48.598;15.650;2024-03-17T06:35:14;98903.13;;;5.78;76.96
59194;BME280;44967;48.598;15.650;2024-03-17T06:37:44;98907.53;;;5.92;77.00
59194;BME280;44967;48.598;15.650;2024-03-17T06:40:15;98898.75;;;6.02;76.01
59194;BME280;44967;48.598;15.650;2024-03-17T06:42:41;98900.47;;;6.20;74.75
59194;BME280;44967;48.598;15.650;2024-03-17T06:45:07;98902.19;;;6.18;75.26
59194;BME280;44967;48.598;15.650;2024-03-17T06:47:34;98912.66;;;6.29;73.41
59194;BME280;44967;48.598;15.650;2024-03-17T06:50:02;98914.38;;;6.43;72.13
59194;BME280;44967;48.598;15.650;2024-03-17T06:52:28;98916.97;;;6.40;73.41
59194;BME280;44967;48.598;15.650;2024-03-17T06:54:54;98915.22;;;6.47;73.22
59194;BME280;44967;48.598;15.650;2024-03-17T06:57:19;98909.94;;;6.54;72.98
59194;BME280;44967;48.598;15.650;2024-03-17T06:59:45;98918.63;;;6.61;72.75
59194;BME280;44967;48.598;15.650;2024-03-17T07:02:12;98919.50;;;6.68;71.89
59194;BME280;44967;48.598;15.650;2024-03-17T07:04:43;98921.16;;;6.87;71.44
59194;BME280;44967;48.598;15.650;2024-03-17T07:07:09;98928.13;;;6.89;70.81
59194;BME280;44967;48.598;15.650;2024-03-17T07:09:35;98914.09;;;6.92;69.47
59194;BME280;44967;48.598;15.650;2024-03-17T07:12:02;98934.22;;;6.97;69.20
59194;BME280;44967;48.598;15.650;2024-03-17T07:14:27;98932.41;;;7.05;68.27
59194;BME280;44967;48.598;15.650;2024-03-17T07:16:53;98920.09;;;7.12;68.60
59194;BME280;44967;48.598;15.650;2024-03-17T07:19:19;98921.75;;;7.25;66.62
59194;BME280;44967;48.598;15.650;2024-03-17T07:21:45;98917.34;;;7.30;63.54
59194;BME280;44967;48.598;15.650;2024-03-17T07:24:11;98926.97;;;7.31;64.89
59194;BME280;44967;48.598;15.650;2024-03-17T07:26:37;98926.94;;;7.37;64.04
59194;BME280;44967;48.598;15.650;2024-03-17T07:29:02;98926.88;;;7.45;64.06
59194;BME280;44967;48.598;15.650;2024-03-17T07:31:28;98930.31;;;7.53;63.50
59194;BME280;44967;48.598;15.650;2024-03-17T07:33:54;98929.38;;;7.58;63.89
59194;BME280;44967;48.598;15.650;2024-03-17T07:36:20;98924.97;;;7.62;62.99
59194;BME280;44967;48.598;15.650;2024-03-17T07:38:47;98927.53;;;7.68;61.74
59194;BME280;44967;48.598;15.650;2024-03-17T07:41:13;98936.25;;;7.76;60.05
59194;BME280;44967;48.598;15.650;2024-03-17T07:43:39;98929.22;;;7.75;58.65
59194;BME280;44967;48.598;15.650;2024-03-17T07:46:09;98927.47;;;7.76;57.00
59194;BME280;44967;48.598;15.650;2024-03-17T07:48:39;98920.41;;;7.81;57.91
59194;BME280;44967;48.598;15.650;2024-03-17T07:51:10;98915.91;;;7.90;56.42
59194;BME280;44967;48.598;15.650;2024-03-17T07:53:45;98911.50;;;7.97;57.30
59194;BME280;44967;48.598;15.650;2024-03-17T07:56:14;98913.31;;;7.87;57.77
59194;BME280;44967;48.598;15.650;2024-03-17T07:58:42;98916.66;;;8.04;57.07
59194;BME280;44967;48.598;15.650;2024-03-17T08:01:12;98917.50;;;8.10;56.57
59194;BME280;44967;48.598;15.650;2024-03-17T08:03:46;98916.69;;;8.03;54.97
59194;BME280;44967;48.598;15.650;2024-03-17T08:06:14;98929.75;;;8.11;55.04
59194;BME280;44967;48.598;15.650;2024-03-17T08:08:40;98919.22;;;8.14;54.20
59194;BME280;44967;48.598;15.650;2024-03-17T08:11:06;98913.91;;;8.15;53.10
59194;BME280;44967;48.598;15.650;2024-03-17T08:13:32;98913.06;;;8.13;54.49
59194;BME280;44967;48.598;15.650;2024-03-17T08:16:02;98916.53;;;8.15;54.30
59194;BME280;44967;48.598;15.650;2024-03-17T08:18:28;98911.28;;;8.17;53.56
59194;BME280;44967;48.598;15.650;2024-03-17T08:20:55;98917.28;;;8.26;53.02
59194;BME280;44967;48.598;15.650;2024-03-17T08:23:22;98912.00;;;8.32;53.62
59194;BME280;44967;48.598;15.650;2024-03-17T08:25:55;98914.56;;;8.38;54.37
59194;BME280;44967;48.598;15.650;2024-03-17T08:28:22;98911.91;;;8.38;53.71
59194;BME280;44967;48.598;15.650;2024-03-17T08:30:55;98916.22;;;8.47;52.58
59194;BME280;44967;48.598;15.650;2024-03-17T08:33:22;98906.47;;;8.53;52.56
59194;BME280;44967;48.598;15.650;2024-03-17T08:36:02;98917.88;;;8.56;54.13
59194;BME280;44967;48.598;15.650;2024-03-17T08:38:30;98919.69;;;8.50;53.13
59194;BME280;44967;48.598;15.650;2024-03-17T08:41:03;98922.31;;;8.50;50.79
59194;BME280;44967;48.598;15.650;2024-03-17T08:43:30;98914.25;;;8.63;53.17
59194;BME280;44967;48.598;15.650;2024-03-17T08:46:06;98906.09;;;8.84;53.31
59194;BME280;44967;48.598;15.650;2024-03-17T08:48:34;98914.81;;;8.86;53.33
59194;BME280;44967;48.598;15.650;2024-03-17T08:51:02;98917.47;;;8.86;52.97
59194;BME280;44967;48.598;15.650;2024-03-17T08:53:28;98916.41;;;9.01;53.02
59194;BME280;44967;48.598;15.650;2024-03-17T08:55:55;98910.78;;;9.23;53.51
59194;BME280;44967;48.598;15.650;2024-03-17T08:58:21;98906.25;;;9.31;53.14
59194;BME280;44967;48.598;15.650;2024-03-17T09:00:47;98901.25;;;9.13;51.47
59194;BME280;44967;48.598;15.650;2024-03-17T09:03:13;98901.16;;;9.19;51.25
59194;BME280;44967;48.598;15.650;2024-03-17T09:05:41;98900.53;;;9.04;51.10
59194;BME280;44967;48.598;15.650;2024-03-17T09:08:09;98890.09;;;8.94;51.51
59194;BME280;44967;48.598;15.650;2024-03-17T09:10:40;98881.31;;;8.95;50.15
59194;BME280;44967;48.598;15.650;2024-03-17T09:13:07;98896.16;;;9.01;53.40
59194;BME280;44967;48.598;15.650;2024-03-17T09:15:33;98881.97;;;9.11;51.07
59194;BME280;44967;48.598;15.650;2024-03-17T09:17:58;98880.97;;;9.17;50.26
59194;BME280;44967;48.598;15.650;2024-03-17T09:20:24;98886.28;;;9.15;50.24
59194;BME280;44967;48.598;15.650;2024-03-17T09:22:50;98885.41;;;9.16;49.35
59194;BME280;44967;48.598;15.650;2024-03-17T09:25:16;98881.59;;;9.32;50.50
59194;BME280;44967;48.598;15.650;2024-03-17T09:27:42;98891.19;;;9.38;49.41
59194;BME280;44967;48.598;15.650;2024-03-17T09:30:08;98889.19;;;9.52;49.76
59194;BME280;44967;48.598;15.650;2024-03-17T09:32:37;98879.78;;;9.37;49.72
59194;BME280;44967;48.598;15.650;2024-03-17T09:35:03;98883.81;;;9.60;49.60
59194;BME280;44967;48.598;15.650;2024-03-17T09:37:30;98884.34;;;9.28;49.14
59194;BME280;44967;48.598;15.650;2024-03-17T09:39:59;98880.75;;;9.32;48.33
59194;BME280;44967;48.598;15.650;2024-03-17T09:42:26;98874.97;;;9.61;49.45
59194;BME280;44967;48.598;15.650;2024-03-17T09:44:53;98875.75;;;9.67;51.74
59194;BME280;44967;48.598;15.650;2024-03-17T09:47:23;98869.56;;;9.68;49.49
59194;BME280;44967;48.598;15.650;2024-03-17T09:49:50;98873.06;;;9.70;48.96
59194;BME280;44967;48.598;15.650;2024-03-17T09:52:24;98870.88;;;9.93;49.44
59194;BME280;44967;48.598;15.650;2024-03-17T09:57:22;98871.59;;;10.03;49.30
59194;BME280;44967;48.598;15.650;2024-03-17T09:59:52;98877.53;;;10.13;50.63
59194;BME280;44967;48.598;15.650;2024-03-17T10:02:22;98871.97;;;10.28;47.99
59194;BME280;44967;48.598;15.650;2024-03-17T10:04:48;98865.56;;;10.39;48.69
59194;BME280;44967;48.598;15.650;2024-03-17T10:07:14;98862.38;;;10.24;47.69
59194;BME280;44967;48.598;15.650;2024-03-17T10:09:43;98859.22;;;10.50;47.56
59194;BME280;44967;48.598;15.650;2024-03-17T10:12:27;98847.53;;;11.35;47.38
59194;BME280;44967;48.598;15.650;2024-03-17T10:15:00;98850.19;;;12.03;44.07
59194;BME280;44967;48.598;15.650;2024-03-17T10:17:33;98841.66;;;13.12;40.73
59194;BME280;44967;48.598;15.650;2024-03-17T10:20:14;98842.34;;;13.71;40.68
59194;BME280;44967;48.598;15.650;2024-03-17T10:23:04;98830.09;;;13.14;40.53
59194;BME280;44967;48.598;15.650;2024-03-17T10:25:32;98833.16;;;13.29;40.11
59194;BME280;44967;48.598;15.650;2024-03-17T10:27:57;98836.13;;;13.46;39.35
59194;BME280;44967;48.598;15.650;2024-03-17T10:30:24;98834.50;;;14.18;38.96
59194;BME280;44967;48.598;15.650;2024-03-17T10:33:01;98829.06;;;14.21;39.66
59194;BME280;44967;48.598;15.650;2024-03-17T10:38:04;98832.53;;;13.73;38.99
59194;BME280;44967;48.598;15.650;2024-03-17T10:40:31;98831.28;;;14.57;40.26
59194;BME280;44967;48.598;15.650;2024-03-17T10:43:05;98829.84;;;14.71;38.03
59194;BME280;44967;48.598;15.650;2024-03-17T10:45:34;98830.59;;;13.52;38.44
59194;BME280;44967;48.598;15.650;2024-03-17T10:48:06;98831.09;;;13.89;40.20
59194;BME280;44967;48.598;15.650;2024-03-17T10:50:36;98823.28;;;14.09;39.78
59194;BME280;44967;48.598;15.650;2024-03-17T10:53:06;98826.47;;;14.44;37.17
59194;BME280;44967;48.598;15.650;2024-03-17T10:55:44;98827.00;;;14.29;39.53
59194;BME280;44967;48.598;15.650;2024-03-17T10:58:36;98825.09;;;14.32;37.54
59194;BME280;44967;48.598;15.650;2024-03-17T11:01:06;98815.47;;;14.76;38.03
59194;BME280;44967;48.598;15.650;2024-03-17T11:03:36;98806.94;;;14.90;36.78
59194;BME280;44967;48.598;15.650;2024-03-17T11:06:03;98802.56;;;14.89;37.19
59194;BME280;44967;48.598;15.650;2024-03-17T11:08:34;98799.41;;;15.01;36.54
59194;BME280;44967;48.598;15.650;2024-03-17T11:11:01;98812.66;;;14.57;36.62
59194;BME280;44967;48.598;15.650;2024-03-17T11:13:30;98810.28;;;14.25;36.87
59194;BME280;44967;48.598;15.650;2024-03-17T11:15:57;98807.25;;;14.59;36.49
59194;BME280;44967;48.598;15.650;2024-03-17T11:21:20;98800.03;;;14.39;38.30
59194;BME280;44967;48.598;15.650;2024-03-17T11:23:59;98790.38;;;14.60;37.86
59194;BME280;44967;48.598;15.650;2024-03-17T11:26:33;98782.28;;;14.63;38.22
59194;BME280;44967;48.598;15.650;2024-03-17T11:29:00;98786.63;;;14.87;38.43
59194;BME280;44967;48.598;15.650;2024-03-17T11:34:04;98787.91;;;14.31;38.91
59194;BME280;44967;48.598;15.650;2024-03-17T11:36:35;98778.16;;;13.83;39.48
59194;BME280;44967;48.598;15.650;2024-03-17T11:39:06;98781.19;;;13.21;39.47
59194;BME280;44967;48.598;15.650;2024-03-17T11:41:46;98772.59;;;13.15;40.59
59194;BME280;44967;48.598;15.650;2024-03-17T11:46:54;98773.59;;;13.09;43.10
59194;BME280;44967;48.598;15.650;2024-03-17T11:49:24;98767.56;;;13.04;40.70
59194;BME280;44967;48.598;15.650;2024-03-17T11:51:53;98766.72;;;12.76;40.91
59194;BME280;44967;48.598;15.650;2024-03-17T11:54:27;98773.97;;;12.71;40.83
59194;BME280;44967;48.598;15.650;2024-03-17T11:56:56;98768.84;;;12.65;41.97
59194;BME280;44967;48.598;15.650;2024-03-17T11:59:22;98760.00;;;12.66;42.57
59194;BME280;44967;48.598;15.650;2024-03-17T12:01:52;98758.38;;;12.60;42.28
59194;BME280;44967;48.598;15.650;2024-03-17T12:04:20;98750.88;;;12.47;41.29
59194;BME280;44967;48.598;15.650;2024-03-17T12:06:57;98743.75;;;12.19;41.95
59194;BME280;44967;48.598;15.650;2024-03-17T12:09:27;98742.28;;;12.39;42.08
59194;BME280;44967;48.598;15.650;2024-03-17T12:12:04;98730.56;;;12.46;42.18
59194;BME280;44967;48.598;15.650;2024-03-17T12:14:32;98730.69;;;11.84;40.89
59194;BME280;44967;48.598;15.650;2024-03-17T12:17:07;98725.13;;;12.22;44.48
59194;BME280;44967;48.598;15.650;2024-03-17T12:19:34;98727.34;;;12.36;42.45
59194;BME280;44967;48.598;15.650;2024-03-17T12:22:01;98714.91;;;12.38;44.10
59194;BME280;44967;48.598;15.650;2024-03-17T12:24:29;98712.09;;;12.44;42.83
59194;BME280;44967;48.598;15.650;2024-03-17T12:26:56;98708.63;;;12.41;40.51
59194;BME280;44967;48.598;15.650;2024-03-17T12:29:38;98707.25;;;12.57;44.37
59194;BME280;44967;48.598;15.650;2024-03-17T12:34:37;98696.63;;;12.29;41.96
59194;BME280;44967;48.598;15.650;2024-03-17T12:37:04;98699.53;;;12.21;43.01
59194;BME280;44967;48.598;15.650;2024-03-17T12:39:34;98704.69;;;12.26;41.76
59194;BME280;44967;48.598;15.650;2024-03-17T12:44:29;98690.56;;;12.25;43.25
59194;BME280;44967;48.598;15.650;2024-03-17T12:46:59;98679.81;;;12.30;42.39
59194;BME280;44967;48.598;15.650;2024-03-17T12:49:30;98698.19;;;12.08;42.09
59194;BME280;44967;48.598;15.650;2024-03-17T12:51:56;98693.44;;;12.18;42.84
59194;BME280;44967;48.598;15.650;2024-03-17T12:54:24;98682.94;;;12.16;42.26
59194;BME280;44967;48.598;15.650;2024-03-17T12:56:51;98679.53;;;12.11;42.21
59194;BME280;44967;48.598;15.650;2024-03-17T12:59:47;98677.13;;;12.04;41.66
59194;BME280;44967;48.598;15.650;2024-03-17T13:02:31;98671.31;;;11.91;42.46
59194;BME280;44967;48.598;15.650;2024-03-17T13:05:17;98669.31;;;11.99;42.03
59194;BME280;44967;48.598;15.650;2024-03-17T13:07:44;98666.44;;;12.07;43.16
59194;BME280;44967;48.598;15.650;2024-03-17T13:10:17;98657.97;;;11.94;41.82
59194;BME280;44967;48.598;15.650;2024-03-17T13:12:45;98661.88;;;12.12;44.85
59194;BME280;44967;48.598;15.650;2024-03-17T13:15:17;98656.81;;;12.04;44.07
59194;BME280;44967;48.598;15.650;2024-03-17T13:17:44;98654.72;;;12.14;44.79
59194;BME280;44967;48.598;15.650;2024-03-17T13:20:13;98645.47;;;11.99;42.97